Time;durP1;ratioP1;P1;durP2;ratioP2;P2;SDS_P1;SDS_P2;PMS_P1;PMS_P2;Temp;Humidity;BMP_temperature;BMP_pressure;BME280_temperature;BME280_humidity;BME280_pressure;Samples;Min_cycle;Max_cycle;Signal;HPM_P1;HPM_P2
2021/12/20 00:01:38;;;;;;;38.83;18.98;;;3.10;99.90;;;;;;4997647;28;20209;-71
2021/12/20 00:04:05;;;;;;;41.00;18.92;;;3.10;99.90;;;;;;4997655;28;20218;-70
2021/12/20 00:06:31;;;;;;;42.78;19.92;;;3.10;99.90;;;;;;4997087;28;20297;-71
2021/12/20 00:08:58;;;;;;;40.25;19.85;;;3.10;99.90;;;;;;4997216;28;20202;-71
2021/12/20 00:11:24;;;;;;;48.65;20.65;;;3.10;99.90;;;;;;4996663;28;20194;-70
2021/12/20 00:13:51;;;;;;;38.22;18.90;;;3.10;99.90;;;;;;4997097;28;20198;-70
2021/12/20 00:16:17;;;;;;;41.25;18.23;;;3.00;99.90;;;;;;4996932;28;20229;-70
2021/12/20 00:18:44;;;;;;;35.90;18.48;;;3.00;99.90;;;;;;4997337;28;20681;-70
2021/12/20 00:21:11;;;;;;;41.42;20.23;;;3.10;99.90;;;;;;4997206;28;20231;-71
2021/12/20 00:23:37;;;;;;;37.30;18.08;;;3.10;99.90;;;;;;4997253;28;20198;-71
2021/12/20 00:26:04;;;;;;;35.40;19.48;;;3.10;99.90;;;;;;4997162;28;20226;-71
2021/12/20 00:28:31;;;;;;;38.38;19.25;;;3.20;99.90;;;;;;4996557;28;20670;-71
2021/12/20 00:30:57;;;;;;;42.75;20.50;;;3.10;99.90;;;;;;4997098;28;20202;-71
2021/12/20 00:33:24;;;;;;;40.22;19.63;;;3.10;99.90;;;;;;4997716;28;20198;-71
2021/12/20 00:35:50;;;;;;;41.38;19.95;;;3.10;99.90;;;;;;4997106;28;20550;-70
2021/12/20 00:41:02;;;;;;;36.72;19.20;;;3.20;99.90;;;;;;4996475;28;20281;-70
2021/12/20 00:43:28;;;;;;;41.17;20.35;;;3.20;99.90;;;;;;4994183;28;20211;-71
2021/12/20 00:45:55;;;;;;;40.67;20.33;;;3.20;99.90;;;;;;4996279;28;20619;-71
2021/12/20 00:48:21;;;;;;;43.22;19.17;;;3.10;99.90;;;;;;4996084;28;20677;-71
2021/12/20 00:50:48;;;;;;;38.75;19.17;;;3.10;99.90;;;;;;4996306;28;20209;-71
2021/12/20 00:53:14;;;;;;;37.28;20.40;;;3.10;99.90;;;;;;4996591;28;20608;-71
2021/12/20 00:55:41;;;;;;;33.58;18.50;;;3.10;99.90;;;;;;4996346;28;20207;-70
2021/12/20 00:58:07;;;;;;;39.72;19.70;;;3.10;99.90;;;;;;4996315;28;20257;-69
2021/12/20 01:00:45;;;;;;;39.20;18.40;;;3.10;99.90;;;;;;4996521;28;20202;-70
2021/12/20 01:03:13;;;;;;;34.47;17.88;;;3.10;99.90;;;;;;4996190;28;20187;-71
2021/12/20 01:05:40;;;;;;;36.80;20.40;;;3.10;99.90;;;;;;4995801;28;20227;-70
2021/12/20 01:08:08;;;;;;;38.45;19.10;;;3.10;99.90;;;;;;4995947;28;20287;-69
2021/12/20 01:10:37;;;;;;;43.00;20.90;;;3.00;99.90;;;;;;4995349;28;20194;-69
2021/12/20 01:13:05;;;;;;;34.22;17.55;;;3.10;99.90;;;;;;4995198;28;20612;-70
2021/12/20 01:15:36;;;;;;;37.70;18.95;;;3.00;99.90;;;;;;4995158;28;20211;-70
2021/12/20 01:18:04;;;;;;;33.00;17.83;;;3.00;99.90;;;;;;4995355;28;20268;-70
2021/12/20 01:20:31;;;;;;;46.75;19.60;;;3.10;99.90;;;;;;4994786;28;20234;-70
2021/12/20 01:22:58;;;;;;;35.92;18.55;;;3.00;99.90;;;;;;4994697;28;20203;-69
2021/12/20 01:25:25;;;;;;;37.80;19.75;;;3.10;99.90;;;;;;4994575;28;20619;-71
2021/12/20 01:27:51;;;;;;;41.03;19.67;;;3.10;99.90;;;;;;4994963;28;20206;-69
2021/12/20 01:30:20;;;;;;;34.80;18.80;;;3.10;99.90;;;;;;4994833;28;20205;-69
2021/12/20 01:32:47;;;;;;;34.97;18.48;;;3.00;99.90;;;;;;4994841;28;20637;-70
2021/12/20 01:35:16;;;;;;;41.00;20.90;;;3.10;99.90;;;;;;4995054;28;20209;-70
2021/12/20 01:37:43;;;;;;;41.50;21.00;;;3.10;99.90;;;;;;4995070;28;20265;-70
2021/12/20 01:40:12;;;;;;;40.15;19.40;;;3.10;99.90;;;;;;4995338;28;20260;-69
2021/12/20 01:42:39;;;;;;;40.88;19.23;;;3.10;99.90;;;;;;4997547;28;20233;-69
2021/12/20 01:45:13;;;;;;;42.22;19.60;;;3.10;99.90;;;;;;4998439;28;20225;-69
2021/12/20 01:47:43;;;;;;;44.42;20.30;;;3.10;99.90;;;;;;4998467;28;20561;-69
2021/12/20 01:50:21;;;;;;;46.28;21.20;;;3.10;99.90;;;;;;4997744;28;20596;-68
2021/12/20 01:52:47;;;;;;;43.40;19.52;;;3.10;99.90;;;;;;4998065;28;20203;-69
2021/12/20 01:55:18;;;;;;;38.03;18.73;;;3.10;99.90;;;;;;4998199;28;20206;-70
2021/12/20 01:57:45;;;;;;;42.53;20.38;;;3.10;99.90;;;;;;4997933;28;20210;-69
2021/12/20 02:00:15;;;;;;;42.00;21.17;;;3.10;99.90;;;;;;4996931;28;20233;-70
2021/12/20 02:02:43;;;;;;;47.03;22.20;;;3.00;99.90;;;;;;4997881;28;20666;-70
2021/12/20 02:05:29;;;;;;;42.67;19.17;;;3.10;99.90;;;;;;4997483;28;20292;-71
2021/12/20 02:08:13;;;;;;;37.22;19.58;;;3.10;99.90;;;;;;4997775;28;20567;-70
2021/12/20 02:10:43;;;;;;;43.05;18.98;;;3.10;99.90;;;;;;4997781;28;20557;-70
2021/12/20 02:13:11;;;;;;;46.97;20.73;;;3.10;99.90;;;;;;4996086;28;20206;-70
2021/12/20 02:15:38;;;;;;;44.03;21.90;;;3.10;99.90;;;;;;4998282;28;20211;-70
2021/12/20 02:18:04;;;;;;;40.60;20.38;;;3.10;99.90;;;;;;4998603;28;20203;-70
2021/12/20 02:20:33;;;;;;;44.63;20.55;;;3.10;99.90;;;;;;4998697;28;20227;-70
2021/12/20 02:23:00;;;;;;;41.00;21.27;;;3.10;99.90;;;;;;4998399;28;20218;-70
2021/12/20 02:25:28;;;;;;;42.30;20.60;;;3.00;99.90;;;;;;4998155;28;20702;-70
2021/12/20 02:27:55;;;;;;;39.67;20.15;;;3.00;99.90;;;;;;4998882;28;20530;-70
2021/12/20 02:30:49;;;;;;;44.03;21.83;;;3.00;99.90;;;;;;4998912;28;20572;-70
2021/12/20 02:38:43;;;;;;;44.42;20.92;;;3.10;99.90;;;;;;4998472;28;20187;-71
2021/12/20 02:41:14;;;;;;;43.15;19.40;;;3.00;99.90;;;;;;4998268;28;20198;-70
2021/12/20 02:43:53;;;;;;;42.20;18.88;;;3.10;99.90;;;;;;4997073;28;20258;-70
2021/12/20 02:49:05;;;;;;;41.03;20.83;;;3.10;99.90;;;;;;4998559;28;20241;-70
2021/12/20 02:51:32;;;;;;;40.00;19.50;;;3.10;99.90;;;;;;4997499;28;20203;-70
2021/12/20 02:54:01;;;;;;;43.30;20.88;;;3.10;99.90;;;;;;4998052;28;20325;-70
2021/12/20 02:56:27;;;;;;;43.00;19.98;;;3.10;99.90;;;;;;4998225;28;20268;-70
2021/12/20 02:58:54;;;;;;;40.65;19.17;;;3.10;99.90;;;;;;4998214;28;20207;-70
2021/12/20 03:01:21;;;;;;;40.28;20.52;;;3.10;99.90;;;;;;4998335;28;20202;-70
2021/12/20 03:03:50;;;;;;;41.88;20.90;;;3.10;99.90;;;;;;4998286;28;20198;-70
2021/12/20 03:06:23;;;;;;;47.75;24.23;;;3.10;99.90;;;;;;4997203;28;20288;-70
2021/12/20 03:08:53;;;;;;;56.72;31.50;;;3.10;99.90;;;;;;4997514;28;20205;-70
2021/12/20 03:11:22;;;;;;;55.67;27.73;;;3.10;99.90;;;;;;4997716;28;20202;-70
2021/12/20 03:13:53;;;;;;;57.30;27.48;;;3.20;99.90;;;;;;4997620;28;20203;-71
2021/12/20 03:16:19;;;;;;;82.10;47.65;;;3.10;99.90;;;;;;4997788;28;20194;-71
2021/12/20 03:18:46;;;;;;;92.88;51.03;;;3.10;99.90;;;;;;4997768;28;20214;-70
2021/12/20 03:21:13;;;;;;;108.72;57.05;;;3.10;99.90;;;;;;4997342;28;20242;-70
2021/12/20 03:23:39;;;;;;;130.40;68.10;;;3.20;99.90;;;;;;4997544;28;20696;-70
2021/12/20 03:26:06;;;;;;;409.90;222.88;;;3.10;99.90;;;;;;4997380;28;20580;-71
2021/12/20 03:28:32;;;;;;;76.55;35.33;;;3.20;99.90;;;;;;4995934;28;20657;-70
2021/12/20 03:30:58;;;;;;;63.72;32.97;;;3.20;99.90;;;;;;4997585;28;20198;-70
2021/12/20 03:33:25;;;;;;;40.80;23.35;;;3.20;99.90;;;;;;4997680;28;20206;-71
2021/12/20 03:35:51;;;;;;;46.25;22.55;;;3.20;99.90;;;;;;4997527;28;20199;-70
2021/12/20 03:38:18;;;;;;;50.33;21.60;;;3.20;99.90;;;;;;4997219;28;20215;-70
2021/12/20 03:40:44;;;;;;;44.85;20.27;;;3.10;99.90;;;;;;4995904;28;20241;-70
2021/12/20 03:43:12;;;;;;;45.10;20.88;;;3.10;99.90;;;;;;4997215;28;20249;-70
2021/12/20 03:45:41;;;;;;;49.22;22.23;;;3.00;99.90;;;;;;4996459;28;20218;-70
2021/12/20 03:48:08;;;;;;;45.53;19.70;;;3.10;99.90;;;;;;4997104;28;20261;-69
2021/12/20 03:50:34;;;;;;;42.22;21.98;;;3.00;99.90;;;;;;4996473;28;20287;-70
2021/12/20 03:53:00;;;;;;;48.78;21.27;;;3.10;99.90;;;;;;4996865;28;20203;-70
2021/12/20 03:55:27;;;;;;;43.55;20.75;;;3.10;99.90;;;;;;4997173;28;20207;-70
2021/12/20 03:57:53;;;;;;;46.03;21.92;;;3.10;99.90;;;;;;4996608;28;20269;-70
2021/12/20 04:00:21;;;;;;;45.75;21.90;;;3.10;99.90;;;;;;4996782;28;20198;-70
2021/12/20 04:02:48;;;;;;;42.28;20.75;;;3.10;99.90;;;;;;4996390;28;20769;-70
2021/12/20 04:05:15;;;;;;;48.80;20.10;;;3.10;99.90;;;;;;4994793;28;20218;-71
2021/12/20 04:07:42;;;;;;;46.38;21.60;;;3.10;99.90;;;;;;4996763;28;20268;-71
2021/12/20 04:10:09;;;;;;;44.28;21.27;;;3.10;99.90;;;;;;4997036;28;20249;-70
2021/12/20 04:12:35;;;;;;;45.00;22.77;;;3.10;99.90;;;;;;4996594;28;20602;-70
2021/12/20 04:15:05;;;;;;;52.85;21.42;;;3.10;99.90;;;;;;4979226;28;20210;-70
2021/12/20 04:17:31;;;;;;;46.35;21.20;;;3.10;99.90;;;;;;4996483;28;20263;-71
2021/12/20 04:19:58;;;;;;;47.08;23.10;;;3.10;99.90;;;;;;4996497;28;20203;-72
2021/12/20 04:22:24;;;;;;;52.30;22.20;;;3.10;99.90;;;;;;4996752;28;20191;-71
2021/12/20 04:24:50;;;;;;;47.10;22.02;;;3.10;99.90;;;;;;4979213;28;20215;-71
2021/12/20 04:27:17;;;;;;;54.33;20.58;;;3.10;99.90;;;;;;4996787;28;20206;-71
2021/12/20 04:29:44;;;;;;;52.78;23.58;;;3.10;99.90;;;;;;4996818;28;20211;-71
2021/12/20 04:32:10;;;;;;;52.90;23.27;;;3.00;99.90;;;;;;4997063;28;20281;-71
2021/12/20 04:34:36;;;;;;;43.30;20.85;;;3.10;99.90;;;;;;4997368;28;20545;-71
2021/12/20 04:37:04;;;;;;;51.42;23.33;;;3.10;99.90;;;;;;4997046;28;20265;-71
2021/12/20 04:39:31;;;;;;;51.60;21.80;;;3.10;99.90;;;;;;4996953;28;20643;-71
2021/12/20 04:42:00;;;;;;;53.15;22.23;;;3.20;99.90;;;;;;4996314;28;20725;-71
2021/12/20 04:44:26;;;;;;;49.55;21.98;;;3.20;99.90;;;;;;4996288;28;20202;-71
2021/12/20 04:46:53;;;;;;;53.42;24.45;;;3.10;99.90;;;;;;4996072;28;20226;-71
2021/12/20 04:49:19;;;;;;;54.55;24.40;;;3.10;99.90;;;;;;4996148;28;20727;-71
2021/12/20 04:51:49;;;;;;;47.08;23.02;;;3.10;99.90;;;;;;4995806;28;20590;-71
2021/12/20 04:54:15;;;;;;;53.08;23.27;;;3.10;99.90;;;;;;4997073;28;20199;-71
2021/12/20 04:56:41;;;;;;;53.00;24.45;;;3.00;99.90;;;;;;4997057;28;20207;-71
2021/12/20 04:59:17;;;;;;;54.53;25.60;;;3.00;99.90;;;;;;4992611;28;20256;-71
2021/12/20 05:01:45;;;;;;;52.05;24.50;;;3.00;99.90;;;;;;4996772;28;20285;-71
2021/12/20 05:04:11;;;;;;;55.13;24.83;;;3.00;99.90;;;;;;4996514;28;20694;-71
2021/12/20 05:06:38;;;;;;;55.95;24.83;;;3.00;99.90;;;;;;4996792;28;20288;-71
2021/12/20 05:09:05;;;;;;;52.72;25.38;;;3.10;99.90;;;;;;4996764;28;20562;-72
2021/12/20 05:11:35;;;;;;;55.35;25.00;;;3.00;99.90;;;;;;4996267;28;20202;-71
2021/12/20 05:14:02;;;;;;;55.38;23.25;;;3.00;99.90;;;;;;4996088;28;20265;-71
2021/12/20 05:16:29;;;;;;;58.08;23.52;;;3.00;99.90;;;;;;4999390;28;20548;-70
2021/12/20 05:18:55;;;;;;;62.15;25.50;;;3.10;99.90;;;;;;5000439;28;20202;-71
2021/12/20 05:21:22;;;;;;;55.53;24.80;;;3.10;99.90;;;;;;5000369;28;20234;-71
2021/12/20 05:23:48;;;;;;;59.28;24.48;;;3.00;99.90;;;;;;5000483;28;20206;-71
2021/12/20 05:26:14;;;;;;;57.20;25.33;;;3.00;99.90;;;;;;5000787;28;20224;-71
2021/12/20 05:28:41;;;;;;;59.42;24.25;;;3.10;99.90;;;;;;5000238;28;20216;-71
2021/12/20 05:31:07;;;;;;;60.90;24.10;;;3.10;99.90;;;;;;4983060;28;20242;-71
2021/12/20 05:33:34;;;;;;;64.43;26.20;;;3.00;99.90;;;;;;5000545;28;20610;-71
2021/12/20 05:36:01;;;;;;;59.70;25.27;;;3.00;99.90;;;;;;4999946;28;20209;-71
2021/12/20 05:38:27;;;;;;;54.92;22.92;;;3.00;99.90;;;;;;5000298;28;20615;-72
2021/12/20 05:40:54;;;;;;;62.67;25.77;;;3.10;99.90;;;;;;5000504;28;20662;-71
2021/12/20 05:43:20;;;;;;;53.63;24.00;;;3.00;99.90;;;;;;5000922;28;20206;-71
2021/12/20 05:45:46;;;;;;;60.55;25.70;;;3.00;99.90;;;;;;5000689;28;20223;-71
2021/12/20 05:48:13;;;;;;;58.08;25.67;;;3.00;99.90;;;;;;4999889;28;20203;-71
2021/12/20 05:50:39;;;;;;;64.10;25.25;;;3.00;99.90;;;;;;5000824;28;20689;-70
2021/12/20 05:53:06;;;;;;;62.20;27.23;;;3.10;99.90;;;;;;5000732;28;20198;-70
2021/12/20 05:55:32;;;;;;;62.38;25.65;;;3.00;99.90;;;;;;5000353;28;20202;-70
2021/12/20 05:57:59;;;;;;;64.10;27.83;;;3.10;99.90;;;;;;4999566;28;20202;-70
2021/12/20 06:00:25;;;;;;;57.05;26.17;;;3.00;99.90;;;;;;5000637;28;20215;-71
2021/12/20 06:02:52;;;;;;;62.13;24.83;;;3.00;99.90;;;;;;4999480;28;20211;-71
2021/12/20 06:05:19;;;;;;;61.55;25.17;;;3.00;99.90;;;;;;4999807;28;20218;-71
2021/12/20 06:07:46;;;;;;;61.47;27.25;;;3.00;99.90;;;;;;4999639;28;20766;-71
2021/12/20 06:10:16;;;;;;;63.85;26.63;;;3.10;99.90;;;;;;4998691;28;20211;-71
2021/12/20 06:12:43;;;;;;;67.05;28.45;;;3.10;99.90;;;;;;4999057;28;20207;-70
2021/12/20 06:15:11;;;;;;;62.33;25.63;;;3.10;99.90;;;;;;4998363;28;20206;-71
2021/12/20 06:17:38;;;;;;;62.42;25.77;;;3.00;99.90;;;;;;4999629;28;20206;-70
2021/12/20 06:20:07;;;;;;;72.03;27.10;;;3.00;99.90;;;;;;4998990;28;20234;-71
2021/12/20 06:22:34;;;;;;;66.40;26.85;;;3.00;99.90;;;;;;4998477;28;20203;-71
2021/12/20 06:25:01;;;;;;;68.90;28.73;;;3.00;99.90;;;;;;4997574;28;20616;-71
2021/12/20 06:27:27;;;;;;;79.35;30.42;;;3.10;99.90;;;;;;4996088;28;20622;-71
2021/12/20 06:29:53;;;;;;;65.03;26.90;;;3.10;99.90;;;;;;4997542;28;20696;-71
2021/12/20 06:32:20;;;;;;;73.20;27.73;;;3.10;99.90;;;;;;4997901;28;20217;-71
2021/12/20 06:34:46;;;;;;;71.80;28.02;;;3.10;99.90;;;;;;4997523;28;20257;-70
2021/12/20 06:37:13;;;;;;;67.80;28.33;;;3.00;99.90;;;;;;4997914;28;20210;-71
2021/12/20 06:39:39;;;;;;;67.78;25.73;;;3.00;99.90;;;;;;4983336;28;20262;-70
2021/12/20 06:42:06;;;;;;;78.93;29.05;;;3.00;99.90;;;;;;5002323;28;20210;-70
2021/12/20 06:44:33;;;;;;;77.60;28.17;;;3.00;99.90;;;;;;5001689;28;20507;-69
2021/12/20 06:46:59;;;;;;;73.95;30.67;;;3.00;99.90;;;;;;5003096;28;20340;-70
2021/12/20 06:49:26;;;;;;;76.45;28.95;;;3.00;99.90;;;;;;5000904;28;20265;-69
2021/12/20 06:51:53;;;;;;;79.63;29.73;;;3.00;99.90;;;;;;4997270;28;20724;-69
2021/12/20 06:54:19;;;;;;;81.88;30.08;;;3.00;99.90;;;;;;4996726;28;20685;-69
2021/12/20 06:56:46;;;;;;;76.40;29.10;;;3.00;99.90;;;;;;4979281;28;20218;-69
2021/12/20 06:59:12;;;;;;;78.13;28.20;;;3.00;99.90;;;;;;4997135;28;20256;-69
2021/12/20 07:01:39;;;;;;;79.07;29.98;;;3.00;99.90;;;;;;4997334;28;20217;-69
2021/12/20 07:04:05;;;;;;;76.63;26.38;;;3.00;99.90;;;;;;4996359;28;20202;-68
2021/12/20 07:06:32;;;;;;;77.40;28.58;;;3.10;99.90;;;;;;4996743;28;20229;-69
2021/12/20 07:08:58;;;;;;;67.53;26.55;;;3.10;99.90;;;;;;4996615;28;20199;-68
2021/12/20 07:11:25;;;;;;;80.15;29.17;;;3.10;99.90;;;;;;4996188;28;20205;-69
2021/12/20 07:13:54;;;;;;;81.43;28.75;;;3.10;99.90;;;;;;4996113;28;20234;-69
2021/12/20 07:16:21;;;;;;;80.13;30.48;;;3.10;99.90;;;;;;4997004;28;20273;-68
2021/12/20 07:18:47;;;;;;;77.40;28.60;;;3.10;99.90;;;;;;4996720;28;20217;-69
2021/12/20 07:21:14;;;;;;;76.00;30.38;;;3.10;99.90;;;;;;4996406;28;20239;-69
2021/12/20 07:23:40;;;;;;;80.00;29.27;;;3.10;99.90;;;;;;4996050;28;20202;-69
2021/12/20 07:26:11;;;;;;;82.72;31.15;;;3.10;99.90;;;;;;4996455;28;20296;-69
2021/12/20 07:28:40;;;;;;;76.80;31.83;;;3.10;99.90;;;;;;4996503;28;20191;-69
2021/12/20 07:31:10;;;;;;;81.35;29.70;;;3.10;99.90;;;;;;4996044;28;20233;-69
2021/12/20 07:33:36;;;;;;;90.68;31.08;;;3.00;99.90;;;;;;4996363;28;20272;-69
2021/12/20 07:36:03;;;;;;;84.65;30.05;;;3.10;99.90;;;;;;4996223;28;20206;-69
2021/12/20 07:38:30;;;;;;;81.97;31.98;;;3.10;99.90;;;;;;4995591;28;20202;-69
2021/12/20 07:40:57;;;;;;;78.22;30.15;;;3.10;99.90;;;;;;4996330;28;20202;-68
2021/12/20 07:43:23;;;;;;;78.05;31.20;;;3.10;99.90;;;;;;4995955;28;20666;-69
2021/12/20 07:45:50;;;;;;;87.10;30.45;;;3.10;99.90;;;;;;4996322;28;20229;-69
2021/12/20 07:48:19;;;;;;;70.72;29.40;;;3.10;99.90;;;;;;4995807;28;20252;-69
2021/12/20 07:50:46;;;;;;;67.75;29.27;;;3.10;99.90;;;;;;4994389;28;20214;-69
2021/12/20 07:53:13;;;;;;;80.93;33.42;;;3.10;99.90;;;;;;4995426;28;20718;-68
2021/12/20 07:55:39;;;;;;;81.55;33.75;;;3.20;99.90;;;;;;4994776;28;20226;-69
2021/12/20 07:58:06;;;;;;;78.25;31.98;;;3.10;99.90;;;;;;4995817;28;20261;-69
2021/12/20 08:00:33;;;;;;;83.32;29.88;;;3.20;99.90;;;;;;4996027;28;20276;-69
2021/12/20 08:03:01;;;;;;;82.82;29.75;;;3.20;99.90;;;;;;4995843;28;20206;-69
2021/12/20 08:05:28;;;;;;;83.88;33.20;;;3.20;99.90;;;;;;4995147;28;20248;-70
2021/12/20 08:07:55;;;;;;;72.97;29.80;;;3.20;99.90;;;;;;4995526;28;20199;-70
2021/12/20 08:10:25;;;;;;;69.22;29.10;;;3.30;99.90;;;;;;4995508;28;20638;-70
2021/12/20 08:12:52;;;;;;;74.40;29.75;;;3.30;99.90;;;;;;4995378;28;20198;-70
2021/12/20 08:15:21;;;;;;;68.10;27.92;;;3.30;99.90;;;;;;4995187;28;20621;-69
2021/12/20 08:17:50;;;;;;;72.30;29.92;;;3.30;99.90;;;;;;4994764;28;20658;-70
2021/12/20 08:20:17;;;;;;;68.55;28.25;;;3.30;99.90;;;;;;4994707;28;20238;-70
2021/12/20 08:22:43;;;;;;;75.93;29.40;;;3.30;99.90;;;;;;4996052;28;20341;-69
2021/12/20 08:25:10;;;;;;;73.65;28.65;;;3.40;99.90;;;;;;4995344;28;20210;-69
2021/12/20 08:27:37;;;;;;;69.90;29.05;;;3.50;99.90;;;;;;4996313;28;20226;-69
2021/12/20 08:30:05;;;;;;;76.40;29.83;;;3.50;99.90;;;;;;4994452;28;20206;-70
2021/12/20 08:32:31;;;;;;;74.20;28.75;;;3.50;99.90;;;;;;4996111;28;20209;-70
2021/12/20 08:34:58;;;;;;;69.82;29.55;;;3.50;99.90;;;;;;4995416;28;20199;-70
2021/12/20 08:37:25;;;;;;;68.70;30.70;;;3.60;99.90;;;;;;4995594;28;20203;-70
2021/12/20 08:39:52;;;;;;;64.55;28.05;;;3.60;99.90;;;;;;4995030;28;20202;-69
2021/12/20 08:42:19;;;;;;;69.43;29.40;;;3.60;99.90;;;;;;4995477;28;20650;-69
2021/12/20 08:44:46;;;;;;;65.03;28.50;;;3.60;99.90;;;;;;4994911;28;20206;-70
2021/12/20 08:47:13;;;;;;;62.25;29.75;;;3.60;99.90;;;;;;4995511;28;20222;-69
2021/12/20 08:49:39;;;;;;;63.65;28.88;;;3.70;99.90;;;;;;4994951;28;20206;-69
2021/12/20 08:52:06;;;;;;;67.82;29.95;;;3.70;99.90;;;;;;4995286;28;20580;-69
2021/12/20 08:54:33;;;;;;;64.57;28.15;;;3.90;99.90;;;;;;4996023;28;20202;-69
2021/12/20 08:56:59;;;;;;;62.97;27.75;;;3.90;99.90;;;;;;4996214;28;20333;-69
2021/12/20 08:59:26;;;;;;;69.57;28.42;;;4.00;99.90;;;;;;4996374;28;20241;-69
2021/12/20 09:01:53;;;;;;;64.57;30.10;;;3.90;99.90;;;;;;4995965;28;20262;-70
2021/12/20 09:04:20;;;;;;;67.60;27.70;;;3.70;99.90;;;;;;4996391;28;20233;-70
2021/12/20 09:06:48;;;;;;;62.85;26.80;;;3.60;99.90;;;;;;4995547;28;20226;-71
2021/12/20 09:09:16;;;;;;;67.30;29.08;;;3.70;99.90;;;;;;4994892;28;20206;-68
2021/12/20 09:11:43;;;;;;;63.17;28.70;;;3.70;99.90;;;;;;4995131;28;20250;-69
2021/12/20 09:14:10;;;;;;;63.95;30.05;;;3.90;99.90;;;;;;4994509;28;20658;-69
2021/12/20 09:16:36;;;;;;;66.75;27.60;;;4.00;99.90;;;;;;4995524;28;20203;-71
2021/12/20 09:19:03;;;;;;;59.05;26.45;;;4.00;99.90;;;;;;4995882;28;20207;-70
2021/12/20 09:21:30;;;;;;;72.03;27.42;;;4.10;99.90;;;;;;4996335;28;20242;-71
2021/12/20 09:23:56;;;;;;;64.75;27.60;;;4.20;99.90;;;;;;4997531;28;20261;-70
2021/12/20 09:26:23;;;;;;;54.75;25.25;;;4.20;99.90;;;;;;4997386;28;20226;-70
2021/12/20 09:28:49;;;;;;;55.08;26.77;;;4.20;99.90;;;;;;4997890;28;20466;-70
2021/12/20 09:31:16;;;;;;;56.35;25.60;;;4.40;99.90;;;;;;4995702;28;20202;-70
2021/12/20 09:33:42;;;;;;;79.43;27.92;;;4.40;99.90;;;;;;4996204;28;20203;-70
2021/12/20 09:36:09;;;;;;;58.53;28.27;;;4.50;99.90;;;;;;4997465;28;20222;-70
2021/12/20 09:38:35;;;;;;;61.15;27.58;;;4.50;99.90;;;;;;4996621;28;20245;-69
2021/12/20 09:43:29;;;;;;;57.25;25.38;;;4.50;99.90;;;;;;4997111;28;20198;-70
2021/12/20 09:45:56;;;;;;;50.10;25.40;;;4.60;99.90;;;;;;4995860;28;20647;-70
2021/12/20 09:48:22;;;;;;;62.28;26.02;;;4.70;99.90;;;;;;4998356;28;20273;-70
2021/12/20 09:50:49;;;;;;;57.25;26.00;;;4.80;99.90;;;;;;4998099;28;20194;-70
2021/12/20 09:53:16;;;;;;;56.95;27.23;;;4.80;99.90;;;;;;4997026;28;20199;-70
2021/12/20 09:55:50;;;;;;;59.80;24.38;;;5.00;99.90;;;;;;4995716;28;20195;-70
2021/12/20 09:58:21;;;;;;;50.13;25.63;;;5.20;99.90;;;;;;4995291;28;20753;-70
2021/12/20 10:00:48;;;;;;;50.67;24.65;;;5.20;99.90;;;;;;4995810;28;20206;-70
2021/12/20 10:03:18;;;;;;;51.90;26.70;;;5.30;99.90;;;;;;4997308;28;20285;-70
2021/12/20 10:05:44;;;;;;;51.00;26.85;;;5.40;99.90;;;;;;4998737;28;20187;-70
2021/12/20 10:08:19;;;;;;;52.83;25.70;;;5.40;99.90;;;;;;4999892;28;20248;-70
2021/12/20 10:10:48;;;;;;;45.33;23.80;;;5.40;99.90;;;;;;4999183;28;20206;-70
2021/12/20 10:13:31;;;;;;;51.63;25.17;;;5.50;99.90;;;;;;4999336;28;20198;-70
2021/12/20 10:15:59;;;;;;;58.45;25.85;;;5.50;99.90;;;;;;4998786;28;20186;-70
2021/12/20 10:18:27;;;;;;;47.13;25.35;;;5.30;99.90;;;;;;4999280;28;20198;-70
2021/12/20 10:20:56;;;;;;;44.58;23.95;;;5.40;99.90;;;;;;4998574;28;20239;-70
2021/12/20 10:23:25;;;;;;;49.22;23.20;;;5.50;99.90;;;;;;4998469;28;20202;-70
2021/12/20 10:26:09;;;;;;;46.13;23.67;;;5.50;99.90;;;;;;4999483;28;20207;-70
2021/12/20 10:28:37;;;;;;;47.85;24.10;;;5.40;99.90;;;;;;4999140;28;20281;-70
2021/12/20 10:31:07;;;;;;;45.03;23.65;;;5.50;99.90;;;;;;4997841;28;20207;-70
2021/12/20 10:33:34;;;;;;;43.90;25.17;;;5.50;99.90;;;;;;4997785;28;20207;-69
2021/12/20 10:36:13;;;;;;;41.55;21.25;;;5.60;99.90;;;;;;4998287;28;20280;-69
2021/12/20 10:38:48;;;;;;;44.83;23.65;;;5.50;99.90;;;;;;4997645;28;20606;-71
2021/12/20 10:41:34;;;;;;;41.13;23.08;;;5.50;99.90;;;;;;4998769;28;20193;-70
2021/12/20 10:44:15;;;;;;;40.53;22.52;;;5.60;99.90;;;;;;4998199;28;20274;-69
2021/12/20 10:46:58;;;;;;;44.20;23.88;;;5.60;99.90;;;;;;4998375;28;20221;-68
2021/12/20 10:49:27;;;;;;;44.85;22.80;;;5.70;99.90;;;;;;4999572;28;20278;-69
2021/12/20 10:51:54;;;;;;;37.97;20.67;;;5.60;99.90;;;;;;4999571;28;20211;-68
2021/12/20 10:54:23;;;;;;;38.80;21.83;;;5.50;99.90;;;;;;4998097;28;20273;-68
2021/12/20 10:57:01;;;;;;;39.50;21.63;;;5.40;99.90;;;;;;4998617;28;20206;-69
2021/12/20 10:59:30;;;;;;;54.67;24.83;;;5.50;99.90;;;;;;4998261;28;20193;-69
2021/12/20 11:04:37;;;;;;;39.83;21.95;;;5.60;99.90;;;;;;4997118;28;20190;-68
2021/12/20 11:09:43;;;;;;;39.42;22.63;;;5.50;99.90;;;;;;4998238;28;20186;-69
2021/12/20 11:12:16;;;;;;;43.05;24.80;;;5.50;99.90;;;;;;4998008;28;20556;-68
2021/12/20 11:14:45;;;;;;;45.83;25.15;;;5.50;99.90;;;;;;4997757;28;20621;-69
2021/12/20 11:17:15;;;;;;;43.17;22.80;;;5.50;99.90;;;;;;4998373;28;20207;-70
2021/12/20 11:19:52;;;;;;;45.33;24.98;;;5.30;99.90;;;;;;4996998;28;20213;-69
2021/12/20 11:22:32;;;;;;;44.78;24.42;;;5.30;99.90;;;;;;4996811;28;20214;-69
2021/12/20 11:25:00;;;;;;;40.72;23.30;;;5.30;99.90;;;;;;4997798;28;20191;-70
2021/12/20 11:27:38;;;;;;;44.92;24.25;;;5.40;99.90;;;;;;4979771;28;20225;-68
2021/12/20 11:30:15;;;;;;;40.70;23.58;;;5.40;99.90;;;;;;4997892;28;20191;-68
2021/12/20 11:32:44;;;;;;;36.22;22.67;;;5.50;99.90;;;;;;4996498;28;20211;-68
2021/12/20 11:35:10;;;;;;;39.13;23.85;;;5.60;99.90;;;;;;4997249;28;20253;-69
2021/12/20 11:37:37;;;;;;;42.55;25.15;;;5.70;99.90;;;;;;4997705;28;20203;-69
2021/12/20 11:40:08;;;;;;;37.42;23.15;;;5.60;99.90;;;;;;4996544;28;20206;-69
2021/12/20 11:42:34;;;;;;;41.85;23.30;;;5.60;99.90;;;;;;4997369;28;20195;-68
2021/12/20 11:45:04;;;;;;;37.90;22.90;;;5.70;99.90;;;;;;4995985;28;20206;-68
2021/12/20 11:47:48;;;;;;;36.28;24.10;;;5.70;99.90;;;;;;4996741;28;20223;-68
2021/12/20 11:50:18;;;;;;;33.28;20.98;;;5.70;99.90;;;;;;4995433;28;20210;-69
2021/12/20 11:52:47;;;;;;;64.07;22.83;;;5.80;99.90;;;;;;4996092;28;20606;-69
2021/12/20 11:55:24;;;;;;;33.30;22.75;;;5.80;99.90;;;;;;4996282;28;20210;-69
2021/12/20 11:57:52;;;;;;;29.40;21.23;;;5.90;99.90;;;;;;4995808;28;20198;-69
2021/12/20 12:00:37;;;;;;;34.60;21.00;;;6.00;99.90;;;;;;4995815;28;20203;-68
2021/12/20 12:03:18;;;;;;;33.70;20.10;;;6.10;99.90;;;;;;4995715;28;20210;-69
2021/12/20 12:05:49;;;;;;;44.17;24.02;;;6.20;99.90;;;;;;4996340;28;20710;-70
2021/12/20 12:08:41;;;;;;;35.83;22.08;;;6.10;99.90;;;;;;4996257;28;20229;-68
2021/12/20 12:11:07;;;;;;;33.72;22.35;;;5.80;99.90;;;;;;4995814;28;20276;-70
2021/12/20 12:13:47;;;;;;;34.70;22.67;;;5.60;99.90;;;;;;4996392;28;20211;-68
2021/12/20 12:16:27;;;;;;;37.97;21.98;;;5.60;99.90;;;;;;4979732;28;20210;-69
2021/12/20 12:18:56;;;;;;;34.20;22.48;;;5.70;99.90;;;;;;4976709;28;20268;-69
2021/12/20 12:21:31;;;;;;;33.78;21.15;;;5.70;99.90;;;;;;4976801;28;20235;-69
2021/12/20 12:24:03;;;;;;;38.78;20.30;;;5.80;99.90;;;;;;4976801;28;20194;-69
2021/12/20 12:26:31;;;;;;;43.28;21.00;;;5.80;99.90;;;;;;4974026;28;20206;-70
2021/12/20 12:29:00;;;;;;;29.50;19.83;;;5.90;99.90;;;;;;4977842;28;20235;-69
2021/12/20 12:31:41;;;;;;;36.30;19.85;;;5.90;99.90;;;;;;4995039;28;20195;-69
2021/12/20 12:34:09;;;;;;;30.50;18.13;;;5.90;99.90;;;;;;4994504;28;20620;-69
2021/12/20 12:36:42;;;;;;;34.20;17.05;;;5.80;99.90;;;;;;4994844;28;20203;-69
2021/12/20 12:39:22;;;;;;;28.60;16.83;;;5.70;99.90;;;;;;4994460;28;20206;-69
2021/12/20 12:41:55;;;;;;;32.15;17.48;;;5.70;99.90;;;;;;4994411;28;20202;-69
2021/12/20 12:44:24;;;;;;;28.95;16.67;;;5.80;99.90;;;;;;4997087;28;20210;-68
2021/12/20 12:47:04;;;;;;;28.15;15.95;;;5.70;99.90;;;;;;4996049;28;20223;-69
2021/12/20 12:49:33;;;;;;;25.75;16.77;;;5.60;99.90;;;;;;4995603;28;20202;-68
2021/12/20 12:52:06;;;;;;;28.38;15.75;;;5.30;99.90;;;;;;4997516;28;20209;-68
2021/12/20 12:54:33;;;;;;;27.52;15.05;;;5.30;99.90;;;;;;4998055;28;20638;-69
2021/12/20 12:57:11;;;;;;;27.98;15.80;;;5.50;99.90;;;;;;4996824;28;20576;-69
2021/12/20 13:00:10;;;;;;;25.23;14.88;;;5.70;99.90;;;;;;4997202;28;20206;-69
2021/12/20 13:02:41;;;;;;;25.15;14.82;;;5.70;99.90;;;;;;4996142;28;20194;-69